createdAt,value
2023-05-24T00:01:09.746Z,99.90
2023-05-24T00:03:39.655Z,99.90
2023-05-24T00:06:07.401Z,99.90
2023-05-24T00:08:35.440Z,99.90
2023-05-24T00:11:02.743Z,99.90
2023-05-24T00:13:30.079Z,99.90
2023-05-24T00:15:57.713Z,99.90
2023-05-24T00:18:26.456Z,99.90
2023-05-24T00:20:57.349Z,99.90
2023-05-24T00:23:25.752Z,99.90
2023-05-24T00:25:53.689Z,99.90
2023-05-24T00:28:21.414Z,99.90
2023-05-24T00:30:48.690Z,99.90
2023-05-24T00:33:16.446Z,99.90
2023-05-24T00:35:43.817Z,99.90
2023-05-24T00:38:11.208Z,99.90
2023-05-24T00:40:39.213Z,99.90
2023-05-24T00:43:06.475Z,99.90
2023-05-24T00:45:33.920Z,99.90
2023-05-24T00:48:02.325Z,99.90
2023-05-24T00:50:29.729Z,99.90
2023-05-24T00:53:02.377Z,99.90
2023-05-24T00:55:30.635Z,99.90
2023-05-24T00:57:58.332Z,99.90
2023-05-24T01:00:27.378Z,99.90
2023-05-24T01:02:55.332Z,99.90
2023-05-24T01:05:23.816Z,99.90
2023-05-24T01:08:15.883Z,99.90
2023-05-24T01:11:07.649Z,99.90
2023-05-24T01:14:03.417Z,99.90
2023-05-24T01:16:51.881Z,99.90
2023-05-24T01:19:33.046Z,99.90
2023-05-24T01:22:12.685Z,99.90
2023-05-24T01:25:02.348Z,99.90
2023-05-24T01:27:34.916Z,99.90
2023-05-24T01:30:04.802Z,99.90
2023-05-24T01:32:33.249Z,99.90
2023-05-24T01:35:00.997Z,99.90
2023-05-24T01:37:28.309Z,99.90
2023-05-24T01:39:56.414Z,99.90
2023-05-24T01:42:37.157Z,99.90
2023-05-24T01:45:32.904Z,99.90
2023-05-24T01:48:12.231Z,99.90
2023-05-24T01:50:46.883Z,99.90
2023-05-24T01:53:16.867Z,99.90
2023-05-24T01:55:48.228Z,99.90
2023-05-24T01:58:19.286Z,99.90
2023-05-24T02:00:46.861Z,99.90
2023-05-24T02:03:16.508Z,99.90
2023-05-24T02:05:45.549Z,99.90
2023-05-24T02:08:13.436Z,99.90
2023-05-24T02:10:41.663Z,99.90
2023-05-24T02:13:09.941Z,99.90
2023-05-24T02:15:42.083Z,99.90
2023-05-24T02:18:14.332Z,99.90
2023-05-24T02:20:43.954Z,99.90
2023-05-24T02:23:11.806Z,99.90
2023-05-24T02:25:40.091Z,99.90
2023-05-24T02:28:07.479Z,99.90
2023-05-24T02:30:35.165Z,99.90
2023-05-24T02:33:02.717Z,99.90
2023-05-24T02:35:30.017Z,99.90
2023-05-24T02:37:58.809Z,99.90
2023-05-24T02:40:26.509Z,99.90
2023-05-24T02:42:53.923Z,99.90
2023-05-24T02:45:21.285Z,99.90
2023-05-24T02:47:48.815Z,99.90
2023-05-24T02:50:16.134Z,99.90
2023-05-24T02:52:44.483Z,99.90
2023-05-24T02:55:11.773Z,99.90
2023-05-24T02:57:39.426Z,99.90
2023-05-24T03:00:09.812Z,99.90
2023-05-24T03:02:38.903Z,99.90
2023-05-24T03:05:07.696Z,99.90
2023-05-24T03:07:35.094Z,99.90
2023-05-24T03:10:02.407Z,99.90
2023-05-24T03:12:29.902Z,99.90
2023-05-24T03:14:57.196Z,99.90
2023-05-24T03:17:24.651Z,99.90
2023-05-24T03:19:53.287Z,99.90
2023-05-24T03:22:20.619Z,99.90
2023-05-24T03:24:48.960Z,99.90
2023-05-24T03:27:17.300Z,99.90
2023-05-24T03:29:44.537Z,99.90
2023-05-24T03:32:12.846Z,99.90
2023-05-24T03:34:40.173Z,99.90
2023-05-24T03:37:07.885Z,99.90
2023-05-24T03:39:35.880Z,99.90
2023-05-24T03:42:22.669Z,99.90
2023-05-24T03:44:52.867Z,99.90
2023-05-24T03:47:20.161Z,99.90
2023-05-24T03:49:48.468Z,99.90
2023-05-24T03:52:15.831Z,99.90
2023-05-24T03:54:43.572Z,99.90
2023-05-24T03:57:11.420Z,99.90
2023-05-24T03:59:40.509Z,99.90
2023-05-24T04:02:08.704Z,99.90
2023-05-24T04:04:37.706Z,99.90
2023-05-24T04:07:05.168Z,99.90
2023-05-24T04:09:32.476Z,99.90
2023-05-24T04:11:59.720Z,99.90
2023-05-24T04:14:26.954Z,99.90
2023-05-24T04:16:55.391Z,99.90
2023-05-24T04:19:22.947Z,99.90
2023-05-24T04:21:50.746Z,99.90
2023-05-24T04:24:18.109Z,99.90
2023-05-24T04:26:45.738Z,99.90
2023-05-24T04:29:13.574Z,99.90
2023-05-24T04:31:45.151Z,99.90
2023-05-24T04:34:14.742Z,99.90
2023-05-24T04:36:42.077Z,99.90
2023-05-24T04:39:11.669Z,99.90
2023-05-24T04:41:38.964Z,99.90
2023-05-24T04:44:06.366Z,99.90
2023-05-24T04:46:36.542Z,99.90
2023-05-24T04:49:05.983Z,99.90
2023-05-24T04:51:33.627Z,99.90
2023-05-24T04:54:01.769Z,99.90
2023-05-24T04:56:29.046Z,99.90
2023-05-24T04:58:56.272Z,99.90
2023-05-24T05:01:23.728Z,99.90
2023-05-24T05:03:51.140Z,99.90
2023-05-24T05:06:18.524Z,99.90
2023-05-24T05:08:45.765Z,99.90
2023-05-24T05:11:14.662Z,99.90
2023-05-24T05:13:41.983Z,99.90
2023-05-24T05:16:09.560Z,99.90
2023-05-24T05:18:37.451Z,99.90
2023-05-24T05:21:04.996Z,99.90
2023-05-24T05:23:32.580Z,99.90
2023-05-24T05:25:59.869Z,99.90
2023-05-24T05:28:27.273Z,99.90
2023-05-24T05:30:54.626Z,99.90
2023-05-24T05:33:21.966Z,99.90
2023-05-24T05:35:49.130Z,99.90
2023-05-24T05:38:16.488Z,99.90
2023-05-24T05:40:44.545Z,99.90
2023-05-24T05:43:12.101Z,99.90
2023-05-24T05:45:39.327Z,99.90
2023-05-24T05:48:06.889Z,99.90
2023-05-24T05:50:34.326Z,99.90
2023-05-24T05:53:01.607Z,99.90
2023-05-24T05:55:29.077Z,99.90
2023-05-24T05:57:56.320Z,99.90
2023-05-24T06:00:23.945Z,99.90
2023-05-24T06:02:51.618Z,99.90
2023-05-24T06:05:19.554Z,99.90
2023-05-24T06:07:47.787Z,99.90
2023-05-24T06:10:15.084Z,99.90
2023-05-24T06:12:42.507Z,99.90
2023-05-24T06:15:10.222Z,99.90
2023-05-24T06:17:37.733Z,99.90
2023-05-24T06:20:08.563Z,99.90
2023-05-24T06:22:37.013Z,99.90
2023-05-24T06:25:05.569Z,99.90
2023-05-24T06:27:33.377Z,99.90
2023-05-24T06:30:00.735Z,99.90
2023-05-24T06:32:28.248Z,99.90
2023-05-24T06:34:56.237Z,99.90
2023-05-24T06:37:25.741Z,99.90
2023-05-24T06:39:53.078Z,99.90
2023-05-24T06:42:20.338Z,99.90
2023-05-24T06:44:47.582Z,99.90
2023-05-24T06:47:14.888Z,99.90
2023-05-24T06:49:42.546Z,99.90
2023-05-24T06:52:09.689Z,99.90
2023-05-24T06:54:37.468Z,99.90
2023-05-24T06:57:05.484Z,99.90
2023-05-24T06:59:32.981Z,99.90
2023-05-24T07:02:02.781Z,99.90
2023-05-24T07:04:31.946Z,99.90
2023-05-24T07:06:59.348Z,99.90
2023-05-24T07:09:26.700Z,99.90
2023-05-24T07:11:54.774Z,99.90
2023-05-24T07:14:23.336Z,99.90
2023-05-24T07:16:50.609Z,99.90
2023-05-24T07:19:17.976Z,99.90
2023-05-24T07:21:45.217Z,99.90
2023-05-24T07:24:14.727Z,99.90
2023-05-24T07:26:43.564Z,99.90
2023-05-24T07:29:10.800Z,99.90
2023-05-24T07:31:38.408Z,99.90
2023-05-24T07:34:05.604Z,99.90
2023-05-24T07:36:35.008Z,99.90
2023-05-24T07:39:04.976Z,99.90
2023-05-24T07:41:33.598Z,99.90
2023-05-24T07:44:01.140Z,99.90
2023-05-24T07:46:28.446Z,99.90
2023-05-24T07:48:55.798Z,99.90
2023-05-24T07:51:23.126Z,99.90
2023-05-24T07:53:50.376Z,99.90
2023-05-24T07:56:17.896Z,99.90
2023-05-24T07:58:47.088Z,99.90
2023-05-24T08:01:14.576Z,99.90
2023-05-24T08:03:42.002Z,99.90
2023-05-24T08:06:10.211Z,99.90
2023-05-24T08:08:37.661Z,99.90
2023-05-24T08:11:04.888Z,99.90
2023-05-24T08:13:32.241Z,99.90
2023-05-24T08:15:59.910Z,99.90
2023-05-24T08:18:27.789Z,99.90
2023-05-24T08:20:56.599Z,99.90
2023-05-24T08:23:24.444Z,99.90
2023-05-24T08:25:59.613Z,99.90
2023-05-24T08:28:28.531Z,99.90
2023-05-24T08:30:55.940Z,99.90
2023-05-24T08:33:23.259Z,99.90
2023-05-24T08:35:53.630Z,99.90
2023-05-24T08:38:21.150Z,99.90
2023-05-24T08:40:49.369Z,99.90
2023-05-24T08:43:17.458Z,99.90
2023-05-24T08:45:46.176Z,99.90
2023-05-24T08:48:15.573Z,99.90
2023-05-24T08:50:45.460Z,99.90
2023-05-24T08:53:14.869Z,99.90
2023-05-24T08:55:44.344Z,99.90
2023-05-24T08:58:11.941Z,99.90
2023-05-24T09:00:39.091Z,99.90
2023-05-24T09:03:08.101Z,99.90
2023-05-24T09:05:37.401Z,99.90
2023-05-24T09:08:06.040Z,99.90
2023-05-24T09:10:44.877Z,99.90
2023-05-24T09:13:20.014Z,99.90
2023-05-24T09:15:47.374Z,99.90
2023-05-24T09:18:14.867Z,99.90
2023-05-24T09:20:42.393Z,99.90
2023-05-24T09:23:11.430Z,99.90
2023-05-24T09:25:44.778Z,99.90
2023-05-24T09:28:16.476Z,99.90
2023-05-24T09:30:57.946Z,99.90
2023-05-24T09:33:31.014Z,99.90
2023-05-24T09:36:00.231Z,99.90
2023-05-24T09:38:28.156Z,99.90
2023-05-24T09:41:06.832Z,99.90
2023-05-24T09:43:36.569Z,99.90
2023-05-24T09:46:04.998Z,99.90
2023-05-24T09:48:32.692Z,99.90
2023-05-24T09:51:06.008Z,99.90
2023-05-24T09:53:35.246Z,99.90
2023-05-24T09:56:10.231Z,99.90
2023-05-24T09:58:37.634Z,99.90
2023-05-24T10:01:07.716Z,99.90
2023-05-24T10:03:38.262Z,99.90
2023-05-24T10:06:11.581Z,99.90
2023-05-24T10:08:39.733Z,99.90
2023-05-24T10:11:07.489Z,99.90
2023-05-24T10:13:36.912Z,99.90
2023-05-24T10:16:04.599Z,99.90
2023-05-24T10:18:32.269Z,99.90
2023-05-24T10:21:03.497Z,99.90
2023-05-24T10:23:33.426Z,99.90
2023-05-24T10:26:08.052Z,99.90
2023-05-24T10:28:47.602Z,99.90
2023-05-24T10:31:20.946Z,99.90
2023-05-24T10:33:54.462Z,99.90
2023-05-24T10:36:27.776Z,99.90
2023-05-24T10:38:56.322Z,99.90
2023-05-24T10:41:30.114Z,99.90
2023-05-24T10:44:09.352Z,99.90
2023-05-24T10:47:13.571Z,99.90
2023-05-24T10:50:00.049Z,99.90
2023-05-24T10:52:37.564Z,99.90
2023-05-24T10:55:10.343Z,99.90
2023-05-24T10:57:38.981Z,99.90
2023-05-24T11:00:43.126Z,99.90
2023-05-24T11:03:12.943Z,99.90
2023-05-24T11:05:51.256Z,99.90
2023-05-24T11:08:35.601Z,99.90
2023-05-24T11:13:47.420Z,99.90
2023-05-24T11:16:40.713Z,99.90
2023-05-24T11:19:21.227Z,99.90
2023-05-24T11:21:53.937Z,99.90
2023-05-24T11:24:25.530Z,99.90
2023-05-24T11:26:53.409Z,99.90
2023-05-24T11:29:22.986Z,99.90
2023-05-24T11:31:57.814Z,99.90
2023-05-24T11:34:27.552Z,99.90
2023-05-24T11:36:55.632Z,99.90
2023-05-24T11:39:23.954Z,99.90
2023-05-24T11:41:53.876Z,99.90
2023-05-24T11:44:22.320Z,99.90
2023-05-24T11:46:49.780Z,99.90
2023-05-24T11:49:17.999Z,99.90
2023-05-24T11:51:45.305Z,99.90
2023-05-24T11:54:12.524Z,99.90
2023-05-24T11:56:40.308Z,99.90
2023-05-24T11:59:07.644Z,99.90
2023-05-24T12:01:34.933Z,99.90
2023-05-24T12:04:02.351Z,99.90
2023-05-24T12:06:40.593Z,99.90
2023-05-24T12:09:10.467Z,99.90
2023-05-24T12:11:42.692Z,99.90
2023-05-24T12:14:19.316Z,99.90
2023-05-24T12:16:47.694Z,99.90
2023-05-24T12:22:00.364Z,99.90
2023-05-24T12:24:28.497Z,99.90
2023-05-24T12:27:07.038Z,99.90
2023-05-24T12:29:41.178Z,99.90
2023-05-24T12:32:15.159Z,99.90
2023-05-24T12:34:45.116Z,99.90
2023-05-24T12:37:15.092Z,99.90
2023-05-24T12:39:43.902Z,99.90
2023-05-24T12:42:13.240Z,99.90
2023-05-24T12:44:40.923Z,98.50
2023-05-24T12:47:09.208Z,98.10
2023-05-24T12:49:37.120Z,97.40
2023-05-24T12:52:04.619Z,96.30
2023-05-24T12:54:32.421Z,98.40
2023-05-24T12:57:00.578Z,97.20
2023-05-24T12:59:29.128Z,95.40
2023-05-24T13:01:56.755Z,94.50
2023-05-24T13:04:26.648Z,92.70
2023-05-24T13:06:54.172Z,98.10
2023-05-24T13:09:23.868Z,99.90
2023-05-24T13:11:52.837Z,99.30
2023-05-24T13:14:20.683Z,99.10
2023-05-24T13:16:48.697Z,97.60
2023-05-24T13:19:17.381Z,97.40
2023-05-24T13:21:45.429Z,96.10
2023-05-24T13:24:16.229Z,98.90
2023-05-24T13:26:44.307Z,96.60
2023-05-24T13:31:42.699Z,97.10
2023-05-24T13:34:11.415Z,98.90
2023-05-24T13:36:39.561Z,99.10
2023-05-24T13:41:41.655Z,99.10
2023-05-24T13:44:10.180Z,96.40
2023-05-24T13:46:38.845Z,97.90
2023-05-24T13:49:06.982Z,96.40
2023-05-24T13:51:34.415Z,95.00
2023-05-24T13:54:02.192Z,94.10
2023-05-24T13:56:35.314Z,96.00
2023-05-24T13:59:04.855Z,95.80
2023-05-24T14:01:33.733Z,93.80
2023-05-24T14:04:02.992Z,92.40
2023-05-24T14:06:31.299Z,92.80
2023-05-24T14:08:59.734Z,91.10
2023-05-24T14:11:31.595Z,90.60
2023-05-24T14:16:30.201Z,90.80
2023-05-24T14:18:58.027Z,90.20
2023-05-24T14:21:27.330Z,91.70
2023-05-24T14:23:54.933Z,90.70
2023-05-24T14:26:25.024Z,90.20
2023-05-24T14:28:55.330Z,86.50
2023-05-24T14:31:24.355Z,87.60
2023-05-24T14:33:51.848Z,86.10
2023-05-24T14:36:19.496Z,89.00
2023-05-24T14:38:46.990Z,92.80
2023-05-24T14:41:14.206Z,92.40
2023-05-24T14:43:42.117Z,91.90
2023-05-24T14:46:09.892Z,91.90
2023-05-24T14:48:37.700Z,91.40
2023-05-24T14:51:05.106Z,90.50
2023-05-24T14:53:32.352Z,89.10
2023-05-24T14:55:59.617Z,90.30
2023-05-24T14:58:27.473Z,87.20
2023-05-24T15:00:54.791Z,85.10
2023-05-24T15:03:22.173Z,80.30
2023-05-24T15:05:51.377Z,81.00
2023-05-24T15:08:18.751Z,79.30
2023-05-24T15:10:46.768Z,76.60
2023-05-24T15:13:14.356Z,85.80
2023-05-24T15:15:42.324Z,90.00
2023-05-24T15:18:10.429Z,80.60
2023-05-24T15:20:38.948Z,86.50
2023-05-24T15:23:06.735Z,85.00
2023-05-24T15:25:34.097Z,89.50
2023-05-24T15:28:01.942Z,92.70
2023-05-24T15:30:29.573Z,93.00
2023-05-24T15:32:57.368Z,93.20
2023-05-24T15:35:24.739Z,93.70
2023-05-24T15:37:52.375Z,93.70
2023-05-24T15:40:20.201Z,92.20
2023-05-24T15:42:50.423Z,94.20
2023-05-24T15:45:17.918Z,92.30
2023-05-24T15:47:45.288Z,92.30
2023-05-24T15:50:13.033Z,92.10
2023-05-24T15:52:40.850Z,92.20
2023-05-24T15:55:08.954Z,90.60
2023-05-24T15:57:36.153Z,89.50
2023-05-24T16:00:04.147Z,93.60
2023-05-24T16:02:39.439Z,93.10
2023-05-24T16:05:07.136Z,94.60
2023-05-24T16:07:35.173Z,95.90
2023-05-24T16:10:02.431Z,96.60
2023-05-24T16:12:30.235Z,96.50
2023-05-24T16:15:00.198Z,96.70
2023-05-24T16:17:27.527Z,96.20
2023-05-24T16:19:54.925Z,96.90
2023-05-24T16:22:24.253Z,97.10
2023-05-24T16:24:51.801Z,97.80
2023-05-24T16:27:19.176Z,98.10
2023-05-24T16:29:47.127Z,99.10
2023-05-24T16:32:14.525Z,99.60
2023-05-24T16:34:56.208Z,99.90
2023-05-24T16:37:24.925Z,99.30
2023-05-24T16:39:52.237Z,99.90
2023-05-24T16:42:19.567Z,99.90
2023-05-24T16:44:46.939Z,99.90
2023-05-24T16:47:14.360Z,99.90
2023-05-24T16:49:41.682Z,99.90
2023-05-24T16:52:09.111Z,99.90
2023-05-24T16:54:36.459Z,99.90
2023-05-24T16:57:03.813Z,99.90
2023-05-24T16:59:31.121Z,99.90
2023-05-24T17:01:58.428Z,99.90
2023-05-24T17:04:25.591Z,99.90
2023-05-24T17:06:52.858Z,99.90
2023-05-24T17:09:20.731Z,99.90
2023-05-24T17:11:49.975Z,99.90
2023-05-24T17:14:18.040Z,99.90
2023-05-24T17:16:45.315Z,99.90
2023-05-24T17:19:14.170Z,99.90
2023-05-24T17:21:41.794Z,99.90
2023-05-24T17:24:09.059Z,99.90
2023-05-24T17:26:36.453Z,99.90
2023-05-24T17:29:04.249Z,99.90
2023-05-24T17:31:33.098Z,99.90
2023-05-24T17:34:01.239Z,99.90
2023-05-24T17:36:28.481Z,99.90
2023-05-24T17:38:55.911Z,99.90
2023-05-24T17:41:23.218Z,99.90
2023-05-24T17:43:50.620Z,99.90
2023-05-24T17:46:17.841Z,99.90
2023-05-24T17:48:46.373Z,99.90
2023-05-24T17:51:15.171Z,99.90
2023-05-24T17:53:43.696Z,99.90
2023-05-24T17:56:11.021Z,99.90
2023-05-24T18:03:41.009Z,99.90
2023-05-24T18:06:09.401Z,99.90
2023-05-24T18:08:38.325Z,99.90
2023-05-24T18:11:09.831Z,99.90
2023-05-24T18:13:42.660Z,99.90
2023-05-24T18:16:11.697Z,99.90
2023-05-24T18:18:39.734Z,99.90
2023-05-24T18:21:07.939Z,99.90
2023-05-24T18:23:38.051Z,99.90
2023-05-24T18:26:09.987Z,99.90
2023-05-24T18:28:39.284Z,99.90
2023-05-24T18:31:10.409Z,99.90
2023-05-24T18:33:38.564Z,99.90
2023-05-24T18:36:06.539Z,99.90
2023-05-24T18:38:35.031Z,99.90
2023-05-24T18:41:06.067Z,99.90
2023-05-24T18:43:34.082Z,99.90
2023-05-24T18:46:02.003Z,99.90
2023-05-24T18:48:29.410Z,99.90
2023-05-24T18:50:56.720Z,99.90
2023-05-24T18:53:24.328Z,99.90
2023-05-24T18:55:51.762Z,99.90
2023-05-24T18:58:19.127Z,99.90
2023-05-24T19:00:46.429Z,99.90
2023-05-24T19:03:14.228Z,99.90
2023-05-24T19:05:43.864Z,99.90
2023-05-24T19:08:11.775Z,99.90
2023-05-24T19:10:39.118Z,99.90
2023-05-24T19:13:07.154Z,99.90
2023-05-24T19:15:37.463Z,99.90
2023-05-24T19:18:05.299Z,99.90
2023-05-24T19:20:32.600Z,99.90
2023-05-24T19:23:00.147Z,99.90
2023-05-24T19:25:27.449Z,99.90
2023-05-24T19:27:59.935Z,99.90
2023-05-24T19:30:28.225Z,99.90
2023-05-24T19:32:55.736Z,99.90
2023-05-24T19:35:23.199Z,99.90
2023-05-24T19:37:50.533Z,99.90
2023-05-24T19:40:17.995Z,99.90
2023-05-24T19:42:45.212Z,99.90
2023-05-24T19:45:13.595Z,99.90
2023-05-24T19:47:40.856Z,99.90
2023-05-24T19:50:08.614Z,99.90
2023-05-24T19:52:35.985Z,99.90
2023-05-24T19:55:03.296Z,99.90
2023-05-24T19:57:30.653Z,99.90
2023-05-24T19:59:57.858Z,99.90
2023-05-24T20:02:25.216Z,99.90
2023-05-24T20:04:53.611Z,99.90
2023-05-24T20:07:20.920Z,99.90
2023-05-24T20:09:50.019Z,99.90
2023-05-24T20:12:17.201Z,99.90
2023-05-24T20:14:44.533Z,99.90
2023-05-24T20:17:11.898Z,99.90
2023-05-24T20:19:39.147Z,99.90
2023-05-24T20:22:06.354Z,99.90
2023-05-24T20:24:33.660Z,99.90
2023-05-24T20:27:00.926Z,99.90
2023-05-24T20:29:28.363Z,99.90
2023-05-24T20:31:55.966Z,99.90
2023-05-24T20:34:23.215Z,99.90
2023-05-24T20:36:50.506Z,99.90
2023-05-24T20:39:17.645Z,99.90
2023-05-24T20:41:44.948Z,99.90
2023-05-24T20:44:12.208Z,99.90
2023-05-24T20:46:39.490Z,99.90
2023-05-24T20:49:07.680Z,99.90
2023-05-24T20:51:35.112Z,99.90
2023-05-24T20:54:04.329Z,99.90
2023-05-24T20:56:31.683Z,99.90
2023-05-24T20:59:00.405Z,99.90
2023-05-24T21:01:27.969Z,99.90
2023-05-24T21:03:56.764Z,99.90
2023-05-24T21:06:24.125Z,99.90
2023-05-24T21:08:51.800Z,99.90
2023-05-24T21:11:19.139Z,99.90
2023-05-24T21:13:46.826Z,99.90
2023-05-24T21:16:14.078Z,99.90
2023-05-24T21:18:41.900Z,99.90
2023-05-24T21:21:09.663Z,99.90
2023-05-24T21:23:36.895Z,99.90
2023-05-24T21:26:04.231Z,99.90
2023-05-24T21:28:31.466Z,99.90
2023-05-24T21:30:58.856Z,99.90
2023-05-24T21:33:26.282Z,99.90
2023-05-24T21:35:53.903Z,99.90
2023-05-24T21:38:21.078Z,99.90
2023-05-24T21:40:48.913Z,99.90
2023-05-24T21:43:16.112Z,99.90
2023-05-24T21:45:43.580Z,99.90
2023-05-24T21:48:11.171Z,99.90
2023-05-24T21:50:38.533Z,99.90
2023-05-24T21:53:05.755Z,99.90
2023-05-24T21:55:33.157Z,99.90
2023-05-24T21:58:00.642Z,99.90
2023-05-24T22:00:28.128Z,99.90
2023-05-24T22:02:55.658Z,99.90
2023-05-24T22:05:23.781Z,99.90
2023-05-24T22:07:51.856Z,99.90
2023-05-24T22:10:19.169Z,99.90
2023-05-24T22:12:47.956Z,99.90
2023-05-24T22:15:15.248Z,99.90
2023-05-24T22:17:42.653Z,99.90
2023-05-24T22:20:10.978Z,99.90
2023-05-24T22:22:48.952Z,99.90
2023-05-24T22:25:21.179Z,99.90
2023-05-24T22:27:48.993Z,99.90
2023-05-24T22:30:17.111Z,99.90
2023-05-24T22:32:44.572Z,99.90
2023-05-24T22:35:12.314Z,99.90
2023-05-24T22:37:39.716Z,99.90
2023-05-24T22:40:07.959Z,99.90
2023-05-24T22:42:35.295Z,99.90
2023-05-24T22:45:02.586Z,99.90
2023-05-24T22:47:33.403Z,99.90
2023-05-24T22:50:02.261Z,99.90
2023-05-24T22:52:33.938Z,99.90
2023-05-24T22:55:02.495Z,99.90
2023-05-24T22:57:30.140Z,99.90
2023-05-24T22:59:57.367Z,99.90
2023-05-24T23:02:24.744Z,99.90
2023-05-24T23:04:53.910Z,99.90
2023-05-24T23:07:21.845Z,99.90
2023-05-24T23:09:49.042Z,99.90
2023-05-24T23:12:18.206Z,99.90
2023-05-24T23:14:46.755Z,99.90
2023-05-24T23:17:14.391Z,99.90
2023-05-24T23:19:43.089Z,99.90
2023-05-24T23:22:23.785Z,99.90
2023-05-24T23:24:52.220Z,99.90
2023-05-24T23:27:20.259Z,99.90
2023-05-24T23:29:47.679Z,99.90
2023-05-24T23:32:14.961Z,99.90
2023-05-24T23:34:42.382Z,99.90
2023-05-24T23:37:09.857Z,99.90
2023-05-24T23:39:37.108Z,99.90
2023-05-24T23:42:04.878Z,99.90
2023-05-24T23:44:32.183Z,99.90
2023-05-24T23:46:59.507Z,99.90
2023-05-24T23:49:27.339Z,99.90
2023-05-24T23:51:54.658Z,99.90
2023-05-24T23:54:22.293Z,99.90
2023-05-24T23:56:49.703Z,99.90
2023-05-24T23:59:17.729Z,99.90
